sensor_id;sensor_type;location;lat;lon;timestamp;temperature;humidity
5136;DHT22;2586;48.710;9.202;2023-02-26T00:01:41;-0.10;99.90
5136;DHT22;2586;48.710;9.202;2023-02-26T00:04:07;-0.10;99.90
5136;DHT22;2586;48.710;9.202;2023-02-26T00:06:36;-0.20;99.90
5136;DHT22;2586;48.710;9.202;2023-02-26T00:09:03;-0.20;99.90
5136;DHT22;2586;48.710;9.202;2023-02-26T00:11:30;-0.20;99.90
5136;DHT22;2586;48.710;9.202;2023-02-26T00:13:56;-0.20;99.90
5136;DHT22;2586;48.710;9.202;2023-02-26T00:16:32;-0.30;99.90
5136;DHT22;2586;48.710;9.202;2023-02-26T00:19:01;-0.30;99.90
5136;DHT22;2586;48.710;9.202;2023-02-26T00:21:28;-0.30;99.90
5136;DHT22;2586;48.710;9.202;2023-02-26T00:23:55;-0.40;99.90
5136;DHT22;2586;48.710;9.202;2023-02-26T00:26:22;-0.40;1.00
5136;DHT22;2586;48.710;9.202;2023-02-26T00:28:48;-0.40;99.90
5136;DHT22;2586;48.710;9.202;2023-02-26T00:31:16;-0.40;99.90
5136;DHT22;2586;48.710;9.202;2023-02-26T00:33:43;-0.50;99.90
5136;DHT22;2586;48.710;9.202;2023-02-26T00:39:06;-0.50;99.90
5136;DHT22;2586;48.710;9.202;2023-02-26T00:41:34;-0.50;1.00
5136;DHT22;2586;48.710;9.202;2023-02-26T00:44:00;-0.50;99.90
5136;DHT22;2586;48.710;9.202;2023-02-26T00:47:00;-0.50;99.90
5136;DHT22;2586;48.710;9.202;2023-02-26T00:55:07;-0.60;99.90
5136;DHT22;2586;48.710;9.202;2023-02-26T00:57:32;-0.60;99.90
5136;DHT22;2586;48.710;9.202;2023-02-26T00:59:58;-0.60;99.90
5136;DHT22;2586;48.710;9.202;2023-02-26T01:02:24;-0.60;99.90
5136;DHT22;2586;48.710;9.202;2023-02-26T01:04:50;-0.60;99.90
5136;DHT22;2586;48.710;9.202;2023-02-26T01:07:19;-0.70;99.90
5136;DHT22;2586;48.710;9.202;2023-02-26T01:09:46;-0.70;99.90
5136;DHT22;2586;48.710;9.202;2023-02-26T01:12:12;-0.70;99.90
5136;DHT22;2586;48.710;9.202;2023-02-26T01:14:39;-0.70;99.90
5136;DHT22;2586;48.710;9.202;2023-02-26T01:23:08;-0.70;99.90
5136;DHT22;2586;48.710;9.202;2023-02-26T01:25:43;-0.80;99.90
5136;DHT22;2586;48.710;9.202;2023-02-26T01:28:12;-0.80;99.90
5136;DHT22;2586;48.710;9.202;2023-02-26T01:30:38;-0.80;99.90
5136;DHT22;2586;48.710;9.202;2023-02-26T01:33:21;-0.80;99.90
5136;DHT22;2586;48.710;9.202;2023-02-26T01:35:53;-0.90;99.90
5136;DHT22;2586;48.710;9.202;2023-02-26T01:38:28;-0.90;99.90
5136;DHT22;2586;48.710;9.202;2023-02-26T01:46:31;-1.00;99.90
5136;DHT22;2586;48.710;9.202;2023-02-26T01:49:01;-1.00;99.90
5136;DHT22;2586;48.710;9.202;2023-02-26T01:54:05;-1.20;99.90
5136;DHT22;2586;48.710;9.202;2023-02-26T01:56:31;-1.20;1.00
5136;DHT22;2586;48.710;9.202;2023-02-26T01:58:57;-1.20;1.00
5136;DHT22;2586;48.710;9.202;2023-02-26T02:01:23;-1.30;99.90
5136;DHT22;2586;48.710;9.202;2023-02-26T02:03:49;-1.30;1.00
5136;DHT22;2586;48.710;9.202;2023-02-26T02:06:18;-1.40;99.90
5136;DHT22;2586;48.710;9.202;2023-02-26T02:08:45;-1.40;1.00
5136;DHT22;2586;48.710;9.202;2023-02-26T02:11:12;-1.40;1.00
5136;DHT22;2586;48.710;9.202;2023-02-26T02:16:54;-1.50;1.00
5136;DHT22;2586;48.710;9.202;2023-02-26T02:22:19;-1.50;1.00
5136;DHT22;2586;48.710;9.202;2023-02-26T02:25:15;-1.60;1.00
5136;DHT22;2586;48.710;9.202;2023-02-26T02:28:12;-1.60;1.00
5136;DHT22;2586;48.710;9.202;2023-02-26T02:34:12;-1.70;1.00
5136;DHT22;2586;48.710;9.202;2023-02-26T02:37:04;-1.70;1.00
5136;DHT22;2586;48.710;9.202;2023-02-26T02:40:00;-1.80;1.00
5136;DHT22;2586;48.710;9.202;2023-02-26T02:43:15;-1.80;1.00
5136;DHT22;2586;48.710;9.202;2023-02-26T02:45:55;-1.80;1.00
5136;DHT22;2586;48.710;9.202;2023-02-26T02:48:47;-1.80;1.00
5136;DHT22;2586;48.710;9.202;2023-02-26T02:56:24;-1.80;1.00
5136;DHT22;2586;48.710;9.202;2023-02-26T03:01:36;-1.90;1.00
5136;DHT22;2586;48.710;9.202;2023-02-26T03:04:12;-1.90;4.60
5136;DHT22;2586;48.710;9.202;2023-02-26T03:06:39;-1.90;99.90
5136;DHT22;2586;48.710;9.202;2023-02-26T03:09:07;-1.90;1.00
5136;DHT22;2586;48.710;9.202;2023-02-26T03:11:33;-1.90;99.90
5136;DHT22;2586;48.710;9.202;2023-02-26T03:13:58;-2.00;99.90
5136;DHT22;2586;48.710;9.202;2023-02-26T03:19:48;-2.00;99.90
5136;DHT22;2586;48.710;9.202;2023-02-26T03:28:31;-2.10;99.90
5136;DHT22;2586;48.710;9.202;2023-02-26T03:31:03;-2.10;99.90
5136;DHT22;2586;48.710;9.202;2023-02-26T03:33:58;-2.20;99.90
5136;DHT22;2586;48.710;9.202;2023-02-26T03:36:32;-2.20;99.90
5136;DHT22;2586;48.710;9.202;2023-02-26T03:39:24;-2.20;99.90
5136;DHT22;2586;48.710;9.202;2023-02-26T03:42:05;-2.20;99.90
5136;DHT22;2586;48.710;9.202;2023-02-26T03:44:34;-2.20;99.90
5136;DHT22;2586;48.710;9.202;2023-02-26T03:47:05;-2.20;99.90
5136;DHT22;2586;48.710;9.202;2023-02-26T03:49:46;-2.20;99.90
5136;DHT22;2586;48.710;9.202;2023-02-26T03:52:13;-2.20;99.90
5136;DHT22;2586;48.710;9.202;2023-02-26T03:54:56;-2.20;99.90
5136;DHT22;2586;48.710;9.202;2023-02-26T03:57:23;-2.30;99.90
5136;DHT22;2586;48.710;9.202;2023-02-26T03:59:49;-2.30;99.90
5136;DHT22;2586;48.710;9.202;2023-02-26T04:02:40;-2.30;99.90
5136;DHT22;2586;48.710;9.202;2023-02-26T04:05:11;-2.30;99.90
5136;DHT22;2586;48.710;9.202;2023-02-26T04:07:40;-2.30;99.90
5136;DHT22;2586;48.710;9.202;2023-02-26T04:10:07;-2.40;99.90
5136;DHT22;2586;48.710;9.202;2023-02-26T04:12:34;-2.30;99.90
5136;DHT22;2586;48.710;9.202;2023-02-26T04:15:00;-2.30;99.90
5136;DHT22;2586;48.710;9.202;2023-02-26T04:17:25;-2.40;99.90
5136;DHT22;2586;48.710;9.202;2023-02-26T04:19:51;-2.40;99.90
5136;DHT22;2586;48.710;9.202;2023-02-26T04:22:17;-2.40;99.90
5136;DHT22;2586;48.710;9.202;2023-02-26T04:24:42;-2.40;99.90
5136;DHT22;2586;48.710;9.202;2023-02-26T04:27:08;-2.50;99.90
5136;DHT22;2586;48.710;9.202;2023-02-26T04:29:33;-2.50;1.00
5136;DHT22;2586;48.710;9.202;2023-02-26T04:31:59;-2.50;99.90
5136;DHT22;2586;48.710;9.202;2023-02-26T04:34:26;-2.50;1.00
5136;DHT22;2586;48.710;9.202;2023-02-26T04:36:51;-2.50;1.00
5136;DHT22;2586;48.710;9.202;2023-02-26T04:39:18;-2.50;99.90
5136;DHT22;2586;48.710;9.202;2023-02-26T04:41:43;-2.60;99.90
5136;DHT22;2586;48.710;9.202;2023-02-26T04:44:09;-2.60;99.90
5136;DHT22;2586;48.710;9.202;2023-02-26T04:46:35;-2.60;1.00
5136;DHT22;2586;48.710;9.202;2023-02-26T04:49:00;-2.60;1.00
5136;DHT22;2586;48.710;9.202;2023-02-26T04:51:26;-2.70;1.00
5136;DHT22;2586;48.710;9.202;2023-02-26T04:53:52;-2.70;1.00
5136;DHT22;2586;48.710;9.202;2023-02-26T04:56:17;-2.70;1.00
5136;DHT22;2586;48.710;9.202;2023-02-26T04:58:43;-2.70;1.00
5136;DHT22;2586;48.710;9.202;2023-02-26T05:01:09;-2.70;5.60
5136;DHT22;2586;48.710;9.202;2023-02-26T05:03:35;-2.70;60.30
5136;DHT22;2586;48.710;9.202;2023-02-26T05:06:00;-2.70;1.00
5136;DHT22;2586;48.710;9.202;2023-02-26T05:08:26;-2.70;20.50
5136;DHT22;2586;48.710;9.202;2023-02-26T05:10:52;-2.70;1.00
5136;DHT22;2586;48.710;9.202;2023-02-26T05:13:18;-2.70;99.90
5136;DHT22;2586;48.710;9.202;2023-02-26T05:15:44;-2.70;99.90
5136;DHT22;2586;48.710;9.202;2023-02-26T05:18:10;-2.70;99.90
5136;DHT22;2586;48.710;9.202;2023-02-26T05:20:35;-2.80;1.00
5136;DHT22;2586;48.710;9.202;2023-02-26T05:23:01;-2.80;79.00
5136;DHT22;2586;48.710;9.202;2023-02-26T05:25:26;-2.80;99.90
5136;DHT22;2586;48.710;9.202;2023-02-26T05:27:52;-2.80;62.30
5136;DHT22;2586;48.710;9.202;2023-02-26T05:30:18;-2.80;99.90
5136;DHT22;2586;48.710;9.202;2023-02-26T05:32:43;-2.80;99.90
5136;DHT22;2586;48.710;9.202;2023-02-26T05:35:10;-2.80;99.90
5136;DHT22;2586;48.710;9.202;2023-02-26T05:37:36;-2.80;99.90
5136;DHT22;2586;48.710;9.202;2023-02-26T05:40:03;-2.80;99.90
5136;DHT22;2586;48.710;9.202;2023-02-26T05:42:28;-2.90;99.90
5136;DHT22;2586;48.710;9.202;2023-02-26T05:44:54;-2.90;99.90
5136;DHT22;2586;48.710;9.202;2023-02-26T05:47:20;-2.90;99.90
5136;DHT22;2586;48.710;9.202;2023-02-26T05:49:45;-2.90;99.90
5136;DHT22;2586;48.710;9.202;2023-02-26T05:52:11;-2.90;99.90
5136;DHT22;2586;48.710;9.202;2023-02-26T05:54:36;-2.90;99.90
5136;DHT22;2586;48.710;9.202;2023-02-26T05:57:02;-2.90;99.90
5136;DHT22;2586;48.710;9.202;2023-02-26T05:59:28;-2.90;99.90
5136;DHT22;2586;48.710;9.202;2023-02-26T06:01:53;-2.90;99.90
5136;DHT22;2586;48.710;9.202;2023-02-26T06:04:19;-3.00;99.90
5136;DHT22;2586;48.710;9.202;2023-02-26T06:06:44;-2.90;1.00
5136;DHT22;2586;48.710;9.202;2023-02-26T06:09:10;-2.90;1.00
5136;DHT22;2586;48.710;9.202;2023-02-26T06:11:35;-2.90;99.90
5136;DHT22;2586;48.710;9.202;2023-02-26T06:14:02;-3.00;99.90
5136;DHT22;2586;48.710;9.202;2023-02-26T06:16:28;-2.90;99.90
5136;DHT22;2586;48.710;9.202;2023-02-26T06:18:54;-2.90;99.90
5136;DHT22;2586;48.710;9.202;2023-02-26T06:21:19;-2.90;99.90
5136;DHT22;2586;48.710;9.202;2023-02-26T06:23:45;-2.90;99.90
5136;DHT22;2586;48.710;9.202;2023-02-26T06:26:11;-2.90;99.90
5136;DHT22;2586;48.710;9.202;2023-02-26T06:28:36;-2.90;99.90
5136;DHT22;2586;48.710;9.202;2023-02-26T06:31:02;-2.90;99.90
5136;DHT22;2586;48.710;9.202;2023-02-26T06:33:28;-2.90;99.90
5136;DHT22;2586;48.710;9.202;2023-02-26T06:35:53;-2.90;99.90
5136;DHT22;2586;48.710;9.202;2023-02-26T06:38:20;-2.90;1.00
5136;DHT22;2586;48.710;9.202;2023-02-26T06:40:46;-2.90;99.90
5136;DHT22;2586;48.710;9.202;2023-02-26T06:43:12;-2.90;99.90
5136;DHT22;2586;48.710;9.202;2023-02-26T06:45:38;-2.90;99.90
5136;DHT22;2586;48.710;9.202;2023-02-26T06:48:04;-2.80;99.90
5136;DHT22;2586;48.710;9.202;2023-02-26T06:50:29;-2.80;99.90
5136;DHT22;2586;48.710;9.202;2023-02-26T06:52:55;-2.70;99.90
5136;DHT22;2586;48.710;9.202;2023-02-26T06:55:21;-2.70;99.90
5136;DHT22;2586;48.710;9.202;2023-02-26T06:57:54;-2.70;99.90
5136;DHT22;2586;48.710;9.202;2023-02-26T07:00:20;-2.60;10.10
5136;DHT22;2586;48.710;9.202;2023-02-26T07:02:46;-2.60;12.30
5136;DHT22;2586;48.710;9.202;2023-02-26T07:05:12;-2.60;14.70
5136;DHT22;2586;48.710;9.202;2023-02-26T07:07:37;-2.50;98.90
5136;DHT22;2586;48.710;9.202;2023-02-26T07:10:03;-2.50;1.00
5136;DHT22;2586;48.710;9.202;2023-02-26T07:12:29;-2.40;1.00
5136;DHT22;2586;48.710;9.202;2023-02-26T07:14:55;-2.40;1.00
5136;DHT22;2586;48.710;9.202;2023-02-26T07:17:20;-2.30;1.00
5136;DHT22;2586;48.710;9.202;2023-02-26T07:19:47;-2.20;1.00
5136;DHT22;2586;48.710;9.202;2023-02-26T07:22:13;-2.10;99.90
5136;DHT22;2586;48.710;9.202;2023-02-26T07:24:40;-2.00;99.90
5136;DHT22;2586;48.710;9.202;2023-02-26T07:27:06;-1.80;99.90
5136;DHT22;2586;48.710;9.202;2023-02-26T07:29:31;-1.70;99.90
5136;DHT22;2586;48.710;9.202;2023-02-26T07:31:57;-1.50;19.90
5136;DHT22;2586;48.710;9.202;2023-02-26T07:34:23;-1.20;1.00
5136;DHT22;2586;48.710;9.202;2023-02-26T07:36:48;-0.90;99.90
5136;DHT22;2586;48.710;9.202;2023-02-26T07:39:14;-0.80;99.90
5136;DHT22;2586;48.710;9.202;2023-02-26T07:41:39;-0.90;99.90
5136;DHT22;2586;48.710;9.202;2023-02-26T07:44:05;-0.90;99.90
5136;DHT22;2586;48.710;9.202;2023-02-26T07:46:31;-1.10;20.00
5136;DHT22;2586;48.710;9.202;2023-02-26T07:48:56;-1.10;99.90
5136;DHT22;2586;48.710;9.202;2023-02-26T07:51:22;-1.10;1.00
5136;DHT22;2586;48.710;9.202;2023-02-26T07:53:47;-1.20;1.00
5136;DHT22;2586;48.710;9.202;2023-02-26T07:56:13;-1.30;56.90
5136;DHT22;2586;48.710;9.202;2023-02-26T07:58:38;-1.20;99.90
5136;DHT22;2586;48.710;9.202;2023-02-26T08:01:04;-1.20;99.90
5136;DHT22;2586;48.710;9.202;2023-02-26T08:03:30;-1.20;99.90
5136;DHT22;2586;48.710;9.202;2023-02-26T08:05:56;-1.30;99.90
5136;DHT22;2586;48.710;9.202;2023-02-26T08:08:25;-1.10;1.00
5136;DHT22;2586;48.710;9.202;2023-02-26T08:10:50;-0.70;1.00
5136;DHT22;2586;48.710;9.202;2023-02-26T08:13:16;-0.10;1.00
5136;DHT22;2586;48.710;9.202;2023-02-26T08:15:42;0.10;99.90
5136;DHT22;2586;48.710;9.202;2023-02-26T08:18:09;0.30;51.70
5136;DHT22;2586;48.710;9.202;2023-02-26T08:20:34;0.50;1.00
5136;DHT22;2586;48.710;9.202;2023-02-26T08:23:00;0.60;1.00
5136;DHT22;2586;48.710;9.202;2023-02-26T08:25:25;1.10;99.90
5136;DHT22;2586;48.710;9.202;2023-02-26T08:27:51;1.00;1.00
5136;DHT22;2586;48.710;9.202;2023-02-26T08:30:17;1.10;99.90
5136;DHT22;2586;48.710;9.202;2023-02-26T08:32:43;1.40;35.90
5136;DHT22;2586;48.710;9.202;2023-02-26T08:35:10;1.00;99.90
5136;DHT22;2586;48.710;9.202;2023-02-26T08:37:36;1.00;99.90
5136;DHT22;2586;48.710;9.202;2023-02-26T08:40:06;0.90;99.90
5136;DHT22;2586;48.710;9.202;2023-02-26T08:42:32;0.80;50.80
5136;DHT22;2586;48.710;9.202;2023-02-26T08:44:58;0.80;99.90
5136;DHT22;2586;48.710;9.202;2023-02-26T08:47:23;0.60;99.90
5136;DHT22;2586;48.710;9.202;2023-02-26T08:49:49;0.20;99.90
5136;DHT22;2586;48.710;9.202;2023-02-26T08:52:15;0.00;99.90
5136;DHT22;2586;48.710;9.202;2023-02-26T08:54:40;-0.30;1.00
5136;DHT22;2586;48.710;9.202;2023-02-26T08:57:06;-0.30;1.00
5136;DHT22;2586;48.710;9.202;2023-02-26T08:59:31;-0.50;1.00
5136;DHT22;2586;48.710;9.202;2023-02-26T09:01:57;-0.50;1.00
5136;DHT22;2586;48.710;9.202;2023-02-26T09:04:22;-0.60;99.90
5136;DHT22;2586;48.710;9.202;2023-02-26T09:06:48;-0.50;99.90
5136;DHT22;2586;48.710;9.202;2023-02-26T09:09:14;-0.50;99.90
5136;DHT22;2586;48.710;9.202;2023-02-26T09:11:39;-0.50;99.90
5136;DHT22;2586;48.710;9.202;2023-02-26T09:14:05;-0.40;99.90
5136;DHT22;2586;48.710;9.202;2023-02-26T09:16:31;-0.60;1.00
5136;DHT22;2586;48.710;9.202;2023-02-26T09:18:59;-0.70;1.00
5136;DHT22;2586;48.710;9.202;2023-02-26T09:21:25;-0.70;1.00
5136;DHT22;2586;48.710;9.202;2023-02-26T09:23:50;-0.60;99.90
5136;DHT22;2586;48.710;9.202;2023-02-26T09:26:16;-0.60;99.90
5136;DHT22;2586;48.710;9.202;2023-02-26T09:28:41;-0.50;99.90
5136;DHT22;2586;48.710;9.202;2023-02-26T09:31:07;-0.30;99.90
5136;DHT22;2586;48.710;9.202;2023-02-26T09:33:33;-0.40;1.00
5136;DHT22;2586;48.710;9.202;2023-02-26T09:35:58;-0.50;1.00
5136;DHT22;2586;48.710;9.202;2023-02-26T09:38:24;-0.40;1.00
5136;DHT22;2586;48.710;9.202;2023-02-26T09:48:44;-0.20;1.00
5136;DHT22;2586;48.710;9.202;2023-02-26T09:51:18;-0.30;99.90
5136;DHT22;2586;48.710;9.202;2023-02-26T09:53:47;-0.30;1.00
5136;DHT22;2586;48.710;9.202;2023-02-26T09:56:16;-0.20;1.00
5136;DHT22;2586;48.710;9.202;2023-02-26T09:58:44;-0.20;1.00
5136;DHT22;2586;48.710;9.202;2023-02-26T10:06:48;-0.20;99.90
5136;DHT22;2586;48.710;9.202;2023-02-26T10:12:21;-0.20;99.90
5136;DHT22;2586;48.710;9.202;2023-02-26T10:15:08;-0.20;99.90
5136;DHT22;2586;48.710;9.202;2023-02-26T10:20:46;-0.40;99.90
5136;DHT22;2586;48.710;9.202;2023-02-26T10:25:42;-0.60;99.90
5136;DHT22;2586;48.710;9.202;2023-02-26T10:31:08;-0.60;1.00
5136;DHT22;2586;48.710;9.202;2023-02-26T10:33:43;-0.50;1.00
5136;DHT22;2586;48.710;9.202;2023-02-26T10:36:27;-0.50;99.90
5136;DHT22;2586;48.710;9.202;2023-02-26T10:39:01;-0.50;1.00
5136;DHT22;2586;48.710;9.202;2023-02-26T10:41:30;-0.50;1.00
5136;DHT22;2586;48.710;9.202;2023-02-26T10:49:27;-0.50;99.90
5136;DHT22;2586;48.710;9.202;2023-02-26T10:51:57;-0.40;1.00
5136;DHT22;2586;48.710;9.202;2023-02-26T10:56:51;-0.40;99.90
5136;DHT22;2586;48.710;9.202;2023-02-26T10:59:17;-0.30;99.90
5136;DHT22;2586;48.710;9.202;2023-02-26T11:01:43;-0.20;99.90
5136;DHT22;2586;48.710;9.202;2023-02-26T11:04:17;0.00;99.90
5136;DHT22;2586;48.710;9.202;2023-02-26T11:07:01;0.10;99.90
5136;DHT22;2586;48.710;9.202;2023-02-26T11:09:33;0.20;1.00
5136;DHT22;2586;48.710;9.202;2023-02-26T11:12:13;0.50;1.00
5136;DHT22;2586;48.710;9.202;2023-02-26T11:14:39;0.50;1.00
5136;DHT22;2586;48.710;9.202;2023-02-26T11:17:25;0.50;1.00
5136;DHT22;2586;48.710;9.202;2023-02-26T11:22:33;0.50;1.00
5136;DHT22;2586;48.710;9.202;2023-02-26T11:25:02;0.60;1.00
5136;DHT22;2586;48.710;9.202;2023-02-26T11:27:35;0.80;1.00
5136;DHT22;2586;48.710;9.202;2023-02-26T11:30:20;1.00;1.00
5136;DHT22;2586;48.710;9.202;2023-02-26T11:32:50;1.00;99.90
5136;DHT22;2586;48.710;9.202;2023-02-26T11:35:17;0.90;1.00
5136;DHT22;2586;48.710;9.202;2023-02-26T11:37:48;0.90;1.00
5136;DHT22;2586;48.710;9.202;2023-02-26T11:40:22;0.80;1.00
5136;DHT22;2586;48.710;9.202;2023-02-26T11:42:54;0.70;99.90
5136;DHT22;2586;48.710;9.202;2023-02-26T11:45:20;0.80;1.00
5136;DHT22;2586;48.710;9.202;2023-02-26T11:47:48;0.80;1.00
5136;DHT22;2586;48.710;9.202;2023-02-26T11:50:21;0.80;1.00
5136;DHT22;2586;48.710;9.202;2023-02-26T11:52:55;0.80;99.90
5136;DHT22;2586;48.710;9.202;2023-02-26T11:55:33;0.80;99.90
5136;DHT22;2586;48.710;9.202;2023-02-26T11:58:00;0.80;99.90
5136;DHT22;2586;48.710;9.202;2023-02-26T12:00:35;0.80;1.00
5136;DHT22;2586;48.710;9.202;2023-02-26T12:03:05;0.70;1.00
5136;DHT22;2586;48.710;9.202;2023-02-26T12:05:32;0.70;99.90
5136;DHT22;2586;48.710;9.202;2023-02-26T12:07:58;0.60;99.90
5136;DHT22;2586;48.710;9.202;2023-02-26T12:10:33;0.70;99.90
5136;DHT22;2586;48.710;9.202;2023-02-26T12:13:16;0.70;99.90
5136;DHT22;2586;48.710;9.202;2023-02-26T12:18:37;0.60;1.00
5136;DHT22;2586;48.710;9.202;2023-02-26T12:30:01;0.60;99.90
5136;DHT22;2586;48.710;9.202;2023-02-26T12:32:37;0.70;99.90
5136;DHT22;2586;48.710;9.202;2023-02-26T12:35:16;0.70;99.90
5136;DHT22;2586;48.710;9.202;2023-02-26T12:43:46;0.50;99.90
5136;DHT22;2586;48.710;9.202;2023-02-26T12:57:26;0.80;99.90
5136;DHT22;2586;48.710;9.202;2023-02-26T13:00:14;1.20;1.00
5136;DHT22;2586;48.710;9.202;2023-02-26T13:03:06;1.20;1.00
5136;DHT22;2586;48.710;9.202;2023-02-26T13:08:33;1.10;99.90
5136;DHT22;2586;48.710;9.202;2023-02-26T13:16:55;1.10;99.90
5136;DHT22;2586;48.710;9.202;2023-02-26T13:21:55;1.10;99.90
5136;DHT22;2586;48.710;9.202;2023-02-26T13:24:40;1.00;99.90
5136;DHT22;2586;48.710;9.202;2023-02-26T13:27:07;0.80;99.90
5136;DHT22;2586;48.710;9.202;2023-02-26T13:29:46;0.80;99.90
5136;DHT22;2586;48.710;9.202;2023-02-26T13:32:22;0.80;1.00
5136;DHT22;2586;48.710;9.202;2023-02-26T13:35:05;0.70;1.00
5136;DHT22;2586;48.710;9.202;2023-02-26T13:37:37;0.60;99.90
5136;DHT22;2586;48.710;9.202;2023-02-26T13:46:05;1.00;99.90
5136;DHT22;2586;48.710;9.202;2023-02-26T13:57:52;1.40;99.90
5136;DHT22;2586;48.710;9.202;2023-02-26T14:00:32;1.60;99.90
5136;DHT22;2586;48.710;9.202;2023-02-26T14:11:25;2.00;99.90
5136;DHT22;2586;48.710;9.202;2023-02-26T14:17:17;2.10;99.90
5136;DHT22;2586;48.710;9.202;2023-02-26T14:19:46;2.00;99.90
5136;DHT22;2586;48.710;9.202;2023-02-26T14:22:34;2.00;99.90
5136;DHT22;2586;48.710;9.202;2023-02-26T14:25:19;2.00;99.90
5136;DHT22;2586;48.710;9.202;2023-02-26T14:27:47;1.90;99.90
5136;DHT22;2586;48.710;9.202;2023-02-26T14:30:33;2.10;99.90
5136;DHT22;2586;48.710;9.202;2023-02-26T14:35:45;2.10;99.90
5136;DHT22;2586;48.710;9.202;2023-02-26T14:38:26;2.10;99.90
5136;DHT22;2586;48.710;9.202;2023-02-26T14:41:04;2.30;99.90
5136;DHT22;2586;48.710;9.202;2023-02-26T14:46:04;2.90;92.60
5136;DHT22;2586;48.710;9.202;2023-02-26T14:48:31;4.20;92.40
5136;DHT22;2586;48.710;9.202;2023-02-26T14:51:22;6.30;54.80
5136;DHT22;2586;48.710;9.202;2023-02-26T14:59:31;5.90;15.20
5136;DHT22;2586;48.710;9.202;2023-02-26T15:04:57;5.00;13.80
5136;DHT22;2586;48.710;9.202;2023-02-26T15:07:53;3.80;17.00
5136;DHT22;2586;48.710;9.202;2023-02-26T15:16:18;4.00;21.10
5136;DHT22;2586;48.710;9.202;2023-02-26T15:21:52;4.80;19.60
5136;DHT22;2586;48.710;9.202;2023-02-26T15:24:22;4.10;20.30
5136;DHT22;2586;48.710;9.202;2023-02-26T15:26:51;3.10;23.40
5136;DHT22;2586;48.710;9.202;2023-02-26T15:29:22;2.50;28.70
5136;DHT22;2586;48.710;9.202;2023-02-26T15:31:54;2.10;37.70
5136;DHT22;2586;48.710;9.202;2023-02-26T15:34:21;1.80;44.50
5136;DHT22;2586;48.710;9.202;2023-02-26T15:36:49;1.60;48.50
5136;DHT22;2586;48.710;9.202;2023-02-26T15:39:17;1.50;55.40
5136;DHT22;2586;48.710;9.202;2023-02-26T15:41:46;1.40;61.20
5136;DHT22;2586;48.710;9.202;2023-02-26T15:44:22;1.40;72.80
5136;DHT22;2586;48.710;9.202;2023-02-26T15:46:54;1.50;81.40
5136;DHT22;2586;48.710;9.202;2023-02-26T15:49:28;1.60;76.40
5136;DHT22;2586;48.710;9.202;2023-02-26T15:51:55;1.60;95.10
5136;DHT22;2586;48.710;9.202;2023-02-26T15:54:24;1.60;77.90
5136;DHT22;2586;48.710;9.202;2023-02-26T15:56:51;1.70;70.80
5136;DHT22;2586;48.710;9.202;2023-02-26T15:59:24;1.70;62.60
5136;DHT22;2586;48.710;9.202;2023-02-26T16:01:51;1.60;66.20
5136;DHT22;2586;48.710;9.202;2023-02-26T16:04:19;1.50;69.10
5136;DHT22;2586;48.710;9.202;2023-02-26T16:06:48;2.80;63.90
5136;DHT22;2586;48.710;9.202;2023-02-26T16:09:19;2.10;59.70
5136;DHT22;2586;48.710;9.202;2023-02-26T16:11:46;1.80;58.90
5136;DHT22;2586;48.710;9.202;2023-02-26T16:14:18;1.60;63.80
5136;DHT22;2586;48.710;9.202;2023-02-26T16:16:51;1.50;63.40
5136;DHT22;2586;48.710;9.202;2023-02-26T16:19:21;1.30;62.00
5136;DHT22;2586;48.710;9.202;2023-02-26T16:21:51;1.20;58.40
5136;DHT22;2586;48.710;9.202;2023-02-26T16:24:19;1.10;59.10
5136;DHT22;2586;48.710;9.202;2023-02-26T16:26:56;1.00;62.90
5136;DHT22;2586;48.710;9.202;2023-02-26T16:29:28;0.90;59.10
5136;DHT22;2586;48.710;9.202;2023-02-26T16:31:56;0.90;63.00
5136;DHT22;2586;48.710;9.202;2023-02-26T16:37:10;0.80;64.90
5136;DHT22;2586;48.710;9.202;2023-02-26T16:39:43;0.70;63.80
5136;DHT22;2586;48.710;9.202;2023-02-26T16:48:03;0.70;67.60
5136;DHT22;2586;48.710;9.202;2023-02-26T16:50:33;0.60;66.80
5136;DHT22;2586;48.710;9.202;2023-02-26T16:53:16;0.60;68.30
5136;DHT22;2586;48.710;9.202;2023-02-26T16:55:49;0.60;68.70
5136;DHT22;2586;48.710;9.202;2023-02-26T16:58:16;0.60;67.30
5136;DHT22;2586;48.710;9.202;2023-02-26T17:00:46;0.60;60.50
5136;DHT22;2586;48.710;9.202;2023-02-26T17:03:17;0.50;61.50
5136;DHT22;2586;48.710;9.202;2023-02-26T17:05:55;0.50;61.90
5136;DHT22;2586;48.710;9.202;2023-02-26T17:08:26;0.50;61.00
5136;DHT22;2586;48.710;9.202;2023-02-26T17:11:37;0.50;58.60
5136;DHT22;2586;48.710;9.202;2023-02-26T17:14:21;0.40;78.90
5136;DHT22;2586;48.710;9.202;2023-02-26T17:16:49;0.40;65.80
5136;DHT22;2586;48.710;9.202;2023-02-26T17:19:15;0.40;64.40
5136;DHT22;2586;48.710;9.202;2023-02-26T17:21:46;0.40;60.50
5136;DHT22;2586;48.710;9.202;2023-02-26T17:24:20;0.30;60.20
5136;DHT22;2586;48.710;9.202;2023-02-26T17:26:47;0.30;62.80
5136;DHT22;2586;48.710;9.202;2023-02-26T17:29:23;0.30;64.70
5136;DHT22;2586;48.710;9.202;2023-02-26T17:31:51;0.20;64.20
5136;DHT22;2586;48.710;9.202;2023-02-26T17:34:19;0.20;62.10
5136;DHT22;2586;48.710;9.202;2023-02-26T17:36:45;0.10;64.80
5136;DHT22;2586;48.710;9.202;2023-02-26T17:39:12;0.10;68.00
5136;DHT22;2586;48.710;9.202;2023-02-26T17:41:41;0.00;66.80
5136;DHT22;2586;48.710;9.202;2023-02-26T17:44:07;0.00;64.90
5136;DHT22;2586;48.710;9.202;2023-02-26T17:46:32;0.00;61.10
5136;DHT22;2586;48.710;9.202;2023-02-26T17:48:58;0.00;66.30
5136;DHT22;2586;48.710;9.202;2023-02-26T17:51:23;0.00;66.10
5136;DHT22;2586;48.710;9.202;2023-02-26T17:53:50;0.00;65.30
5136;DHT22;2586;48.710;9.202;2023-02-26T17:56:33;0.10;70.00
5136;DHT22;2586;48.710;9.202;2023-02-26T17:58:59;0.00;64.90
5136;DHT22;2586;48.710;9.202;2023-02-26T18:01:25;0.00;61.40
5136;DHT22;2586;48.710;9.202;2023-02-26T18:03:53;-0.10;63.60
5136;DHT22;2586;48.710;9.202;2023-02-26T18:06:20;-0.10;60.80
5136;DHT22;2586;48.710;9.202;2023-02-26T18:08:46;-0.20;61.40
5136;DHT22;2586;48.710;9.202;2023-02-26T18:11:14;-0.20;61.70
5136;DHT22;2586;48.710;9.202;2023-02-26T18:13:40;-0.20;60.40
5136;DHT22;2586;48.710;9.202;2023-02-26T18:16:14;-0.30;62.80
5136;DHT22;2586;48.710;9.202;2023-02-26T18:18:41;-0.30;62.20
5136;DHT22;2586;48.710;9.202;2023-02-26T18:21:07;-0.30;61.10
5136;DHT22;2586;48.710;9.202;2023-02-26T18:23:32;-0.40;64.30
5136;DHT22;2586;48.710;9.202;2023-02-26T18:25:58;-0.40;65.10
5136;DHT22;2586;48.710;9.202;2023-02-26T18:28:26;-0.50;67.40
5136;DHT22;2586;48.710;9.202;2023-02-26T18:30:52;-0.50;66.90
5136;DHT22;2586;48.710;9.202;2023-02-26T18:33:19;-0.50;69.40
5136;DHT22;2586;48.710;9.202;2023-02-26T18:35:47;-0.50;72.20
5136;DHT22;2586;48.710;9.202;2023-02-26T18:38:16;-0.50;74.30
5136;DHT22;2586;48.710;9.202;2023-02-26T18:40:42;-0.40;72.30
5136;DHT22;2586;48.710;9.202;2023-02-26T18:43:08;-0.40;71.00
5136;DHT22;2586;48.710;9.202;2023-02-26T18:45:44;-0.40;73.60
5136;DHT22;2586;48.710;9.202;2023-02-26T18:48:15;-0.40;72.30
5136;DHT22;2586;48.710;9.202;2023-02-26T18:50:42;-0.30;72.90
5136;DHT22;2586;48.710;9.202;2023-02-26T18:53:08;-0.30;73.10
5136;DHT22;2586;48.710;9.202;2023-02-26T18:55:34;-0.30;74.60
5136;DHT22;2586;48.710;9.202;2023-02-26T18:57:59;-0.40;71.90
5136;DHT22;2586;48.710;9.202;2023-02-26T19:00:25;-0.40;73.80
5136;DHT22;2586;48.710;9.202;2023-02-26T19:02:54;-0.40;83.90
5136;DHT22;2586;48.710;9.202;2023-02-26T19:05:19;-0.50;80.30
5136;DHT22;2586;48.710;9.202;2023-02-26T19:07:48;-0.50;82.90
5136;DHT22;2586;48.710;9.202;2023-02-26T19:10:15;-0.60;84.90
5136;DHT22;2586;48.710;9.202;2023-02-26T19:12:41;-0.50;87.20
5136;DHT22;2586;48.710;9.202;2023-02-26T19:15:07;-0.60;90.20
5136;DHT22;2586;48.710;9.202;2023-02-26T19:17:33;-0.60;92.80
5136;DHT22;2586;48.710;9.202;2023-02-26T19:19:59;-0.60;92.80
5136;DHT22;2586;48.710;9.202;2023-02-26T19:22:24;-0.70;95.30
5136;DHT22;2586;48.710;9.202;2023-02-26T19:24:50;-0.60;97.40
5136;DHT22;2586;48.710;9.202;2023-02-26T19:27:15;-0.60;99.90
5136;DHT22;2586;48.710;9.202;2023-02-26T19:29:41;-0.60;98.80
5136;DHT22;2586;48.710;9.202;2023-02-26T19:32:08;-0.60;98.10